createdAt,value
2019-02-18T00:01:18.261Z,15.03
2019-02-18T00:03:49.674Z,17.43
2019-02-18T00:06:19.577Z,28.47
2019-02-18T00:08:50.811Z,24.77
2019-02-18T00:11:20.539Z,26.73
2019-02-18T00:13:51.295Z,19.33
2019-02-18T00:16:21.186Z,18.87
2019-02-18T00:18:51.086Z,21.83
2019-02-18T00:21:22.551Z,17.87
2019-02-18T00:23:52.299Z,18.67
2019-02-18T00:26:22.107Z,22.80
2019-02-18T00:28:52.100Z,24.40
2019-02-18T00:31:21.863Z,21.80
2019-02-18T00:33:51.688Z,17.07
2019-02-18T00:36:21.548Z,18.93
2019-02-18T00:38:51.340Z,18.57
2019-02-18T00:41:21.063Z,19.07
2019-02-18T00:43:50.859Z,24.33
2019-02-18T00:46:20.875Z,23.63
2019-02-18T00:48:50.886Z,23.50
2019-02-18T00:51:20.747Z,26.33
2019-02-18T00:53:50.574Z,19.97
2019-02-18T00:56:20.433Z,21.27
2019-02-18T00:58:50.504Z,22.40
2019-02-18T01:01:20.341Z,18.77
2019-02-18T01:03:52.192Z,19.77
2019-02-18T01:06:22.134Z,21.07
2019-02-18T01:08:52.047Z,20.33
2019-02-18T01:11:22.021Z,25.77
2019-02-18T01:13:52.007Z,21.93
2019-02-18T01:16:21.855Z,23.07
2019-02-18T01:18:51.662Z,24.20
2019-02-18T01:21:22.686Z,19.97
2019-02-18T01:23:52.518Z,21.47
2019-02-18T01:26:22.414Z,19.33
2019-02-18T01:28:52.118Z,21.80
2019-02-18T01:31:21.991Z,17.50
2019-02-18T01:33:51.908Z,28.97
2019-02-18T01:36:23.184Z,19.47
2019-02-18T01:38:53.315Z,20.77
2019-02-18T01:41:23.243Z,19.17
2019-02-18T01:43:53.138Z,24.40
2019-02-18T01:46:22.966Z,18.77
2019-02-18T01:48:52.791Z,23.53
2019-02-18T01:51:22.610Z,18.47
2019-02-18T01:53:52.400Z,17.30
2019-02-18T01:56:23.315Z,20.63
2019-02-18T01:58:56.147Z,18.93
2019-02-18T02:01:28.200Z,23.17
2019-02-18T02:04:07.697Z,23.27
2019-02-18T02:06:37.397Z,18.93
2019-02-18T02:09:09.714Z,24.67
2019-02-18T02:11:39.532Z,17.57
2019-02-18T02:14:09.436Z,26.77
2019-02-18T02:16:39.359Z,24.13
2019-02-18T02:19:09.224Z,25.17
2019-02-18T02:21:39.183Z,21.77
2019-02-18T02:24:09.233Z,21.93
2019-02-18T02:26:39.222Z,28.17
2019-02-18T02:29:09.066Z,25.30
2019-02-18T02:31:38.759Z,19.87
2019-02-18T02:34:08.726Z,22.83
2019-02-18T02:36:38.545Z,22.83
2019-02-18T02:39:11.426Z,28.23
2019-02-18T02:41:41.214Z,22.93
2019-02-18T02:44:11.094Z,22.30
2019-02-18T02:46:40.957Z,26.33
2019-02-18T02:49:12.559Z,26.30
2019-02-18T02:51:44.778Z,20.13
2019-02-18T02:54:16.308Z,27.63
2019-02-18T02:56:46.002Z,24.63
2019-02-18T02:59:15.798Z,22.30
2019-02-18T03:01:45.515Z,24.63
2019-02-18T03:04:15.324Z,24.77
2019-02-18T03:06:45.284Z,27.93
2019-02-18T03:09:15.061Z,27.80
2019-02-18T03:11:44.902Z,22.47
2019-02-18T03:14:14.868Z,20.30
2019-02-18T03:16:44.749Z,27.97
2019-02-18T03:19:14.603Z,28.90
2019-02-18T03:21:44.388Z,19.63
2019-02-18T03:24:14.143Z,30.27
2019-02-18T03:26:43.925Z,22.03
2019-02-18T03:29:57.058Z,21.27
2019-02-18T03:32:27.272Z,22.17
2019-02-18T03:34:57.110Z,31.97
2019-02-18T03:37:27.013Z,22.63
2019-02-18T03:39:57.077Z,27.33
2019-02-18T03:42:26.850Z,22.03
2019-02-18T03:44:56.563Z,22.03
2019-02-18T03:47:26.302Z,25.87
2019-02-18T03:49:56.207Z,25.63
2019-02-18T03:52:26.022Z,26.13
2019-02-18T03:54:56.033Z,22.07
2019-02-18T03:57:25.998Z,29.43
2019-02-18T03:59:55.828Z,32.17
2019-02-18T04:02:25.643Z,21.93
2019-02-18T04:04:55.493Z,23.00
2019-02-18T04:07:25.298Z,31.97
2019-02-18T04:09:55.093Z,28.27
2019-02-18T04:12:24.927Z,21.33
2019-02-18T04:14:54.781Z,25.53
2019-02-18T04:17:25.094Z,34.37
2019-02-18T04:19:54.853Z,27.83
2019-02-18T04:22:26.992Z,24.03
2019-02-18T04:24:56.722Z,29.27
2019-02-18T04:27:29.519Z,26.40
2019-02-18T04:29:59.255Z,25.37
2019-02-18T04:32:29.267Z,26.77
2019-02-18T04:34:59.113Z,29.23
2019-02-18T04:37:28.982Z,27.53
2019-02-18T04:40:00.884Z,25.50
2019-02-18T04:42:32.966Z,26.40
2019-02-18T04:45:02.752Z,24.37
2019-02-18T04:47:32.575Z,24.33
2019-02-18T04:50:02.375Z,22.13
2019-02-18T04:52:32.090Z,24.87
2019-02-18T04:55:02.079Z,25.93
2019-02-18T04:57:32.147Z,28.13
2019-02-18T05:00:01.916Z,25.53
2019-02-18T05:02:31.850Z,29.30
2019-02-18T05:05:01.743Z,27.47
2019-02-18T05:07:31.760Z,29.23
2019-02-18T05:10:01.700Z,25.23
2019-02-18T05:12:31.717Z,24.57
2019-02-18T05:15:01.488Z,26.73
2019-02-18T05:17:31.278Z,25.03
2019-02-18T05:20:01.055Z,24.23
2019-02-18T05:22:30.800Z,23.47
2019-02-18T05:25:03.090Z,23.23
2019-02-18T05:27:33.654Z,21.83
2019-02-18T05:30:04.043Z,24.73
2019-02-18T05:32:34.772Z,22.07
2019-02-18T05:35:04.563Z,18.07
2019-02-18T05:37:34.270Z,24.93
2019-02-18T05:40:04.211Z,24.83
2019-02-18T05:42:36.250Z,27.03
2019-02-18T05:45:07.261Z,24.40
2019-02-18T05:47:38.233Z,22.20
2019-02-18T05:50:08.199Z,31.07
2019-02-18T05:52:37.934Z,23.80
2019-02-18T05:55:08.879Z,22.43
2019-02-18T05:57:41.540Z,28.47
2019-02-18T06:00:12.350Z,22.60
2019-02-18T06:02:42.160Z,25.67
2019-02-18T06:05:12.012Z,28.27
2019-02-18T06:07:42.843Z,30.17
2019-02-18T06:10:13.916Z,25.03
2019-02-18T06:12:44.078Z,30.67
2019-02-18T06:15:15.070Z,22.60
2019-02-18T06:17:44.884Z,24.70
2019-02-18T06:20:14.706Z,30.63
2019-02-18T06:22:44.460Z,29.97
2019-02-18T06:25:14.303Z,23.73
2019-02-18T06:27:44.968Z,20.13
2019-02-18T06:30:33.959Z,25.77
2019-02-18T06:33:06.808Z,24.63
2019-02-18T06:35:36.595Z,22.27
2019-02-18T06:38:06.307Z,23.80
2019-02-18T06:40:36.081Z,27.47
2019-02-18T06:43:08.010Z,25.70
2019-02-18T06:45:48.031Z,25.47
2019-02-18T06:48:22.759Z,26.90
2019-02-18T06:50:53.872Z,22.27
2019-02-18T06:53:25.858Z,19.20
2019-02-18T06:55:58.279Z,22.67
2019-02-18T06:58:38.728Z,23.83
2019-02-18T07:01:34.224Z,30.63
2019-02-18T07:04:15.234Z,19.57
2019-02-18T07:07:14.503Z,22.17
2019-02-18T07:10:07.705Z,18.67
2019-02-18T07:12:49.020Z,22.47
2019-02-18T07:15:20.616Z,21.07
2019-02-18T07:17:51.752Z,21.40
2019-02-18T07:20:24.046Z,22.80
2019-02-18T07:22:53.834Z,21.43
2019-02-18T07:25:23.559Z,22.83
2019-02-18T07:27:58.689Z,22.53
2019-02-18T07:30:31.102Z,20.30
2019-02-18T07:33:00.816Z,23.80
2019-02-18T07:35:30.901Z,21.40
2019-02-18T07:38:05.829Z,20.70
2019-02-18T07:40:35.630Z,21.97
2019-02-18T07:43:05.954Z,18.57
2019-02-18T07:45:35.722Z,26.20
2019-02-18T07:48:05.526Z,31.97
2019-02-18T07:50:35.267Z,21.43
2019-02-18T07:53:07.998Z,22.40
2019-02-18T07:55:37.690Z,21.53
2019-02-18T07:58:08.783Z,23.10
2019-02-18T08:00:40.602Z,19.20
2019-02-18T08:03:10.410Z,25.20
2019-02-18T08:05:59.373Z,22.27
2019-02-18T08:08:30.281Z,24.83
2019-02-18T08:10:59.990Z,25.13
2019-02-18T08:13:32.827Z,19.60
2019-02-18T08:16:03.690Z,21.20
2019-02-18T08:18:34.726Z,23.90
2019-02-18T08:21:04.511Z,18.63
2019-02-18T08:23:34.266Z,25.77
2019-02-18T08:26:05.682Z,26.63
2019-02-18T08:28:36.414Z,20.20
2019-02-18T08:31:06.231Z,25.50
2019-02-18T08:33:35.990Z,24.00
2019-02-18T08:36:05.986Z,19.80
2019-02-18T08:38:35.746Z,18.20
2019-02-18T08:41:10.911Z,26.03
2019-02-18T08:43:40.692Z,22.97
2019-02-18T08:46:12.170Z,26.90
2019-02-18T08:48:42.978Z,21.90
2019-02-18T08:51:14.566Z,21.77
2019-02-18T08:53:48.016Z,35.37
2019-02-18T08:56:18.834Z,30.20
2019-02-18T08:58:49.490Z,24.60
2019-02-18T09:01:20.911Z,21.57
2019-02-18T09:03:51.747Z,21.43
2019-02-18T09:06:21.874Z,24.53
2019-02-18T09:08:51.638Z,32.03
2019-02-18T09:11:21.415Z,28.37
2019-02-18T09:13:51.569Z,28.17
2019-02-18T09:16:21.414Z,22.90
2019-02-18T09:18:51.130Z,25.90
2019-02-18T09:21:20.976Z,18.50
2019-02-18T09:23:56.570Z,23.13
2019-02-18T09:26:26.398Z,26.33
2019-02-18T09:28:56.265Z,27.33
2019-02-18T09:31:33.304Z,29.23
2019-02-18T09:34:03.607Z,23.07
2019-02-18T09:36:33.446Z,26.30
2019-02-18T09:39:06.446Z,25.53
2019-02-18T09:41:36.241Z,23.83
2019-02-18T09:44:08.127Z,25.50
2019-02-18T09:46:40.435Z,25.90
2019-02-18T09:49:11.564Z,35.70
2019-02-18T09:51:41.486Z,26.70
2019-02-18T09:54:11.202Z,24.13
2019-02-18T09:56:40.927Z,26.80
2019-02-18T09:59:10.828Z,27.47
2019-02-18T10:01:43.069Z,27.37
2019-02-18T10:04:12.454Z,25.10
2019-02-18T10:06:42.286Z,29.57
2019-02-18T10:09:13.458Z,23.23
2019-02-18T10:11:43.227Z,29.83
2019-02-18T10:14:13.711Z,25.67
2019-02-18T10:16:44.031Z,24.30
2019-02-18T10:19:13.827Z,26.83
2019-02-18T10:21:45.858Z,32.97
2019-02-18T10:24:15.634Z,23.33
2019-02-18T10:26:45.334Z,25.33
2019-02-18T10:29:17.794Z,29.43
2019-02-18T10:31:47.570Z,26.07
2019-02-18T10:34:17.358Z,26.53
2019-02-18T10:36:54.287Z,24.47
2019-02-18T10:39:23.976Z,23.80
2019-02-18T10:41:53.767Z,21.43
2019-02-18T10:44:23.535Z,28.87
2019-02-18T10:46:53.346Z,29.00
2019-02-18T10:49:24.502Z,35.43
2019-02-18T10:51:54.618Z,36.87
2019-02-18T10:54:24.524Z,30.77
2019-02-18T10:56:54.574Z,33.10
2019-02-18T10:59:24.377Z,31.37
2019-02-18T11:01:54.349Z,27.50
2019-02-18T11:04:24.327Z,30.77
2019-02-18T11:06:54.315Z,36.03
2019-02-18T11:09:24.248Z,33.73
2019-02-18T11:11:54.236Z,27.20
2019-02-18T11:14:27.018Z,29.23
2019-02-18T11:16:56.856Z,28.83
2019-02-18T11:19:26.720Z,24.03
2019-02-18T11:21:56.512Z,26.63
2019-02-18T11:24:26.317Z,23.57
2019-02-18T11:26:58.755Z,28.83
2019-02-18T11:29:28.869Z,26.10
2019-02-18T11:31:58.883Z,33.07
2019-02-18T11:34:32.776Z,34.03
2019-02-18T11:37:02.593Z,28.63
2019-02-18T11:39:34.465Z,30.70
2019-02-18T11:42:05.472Z,24.37
2019-02-18T11:44:37.053Z,32.43
2019-02-18T11:47:06.915Z,31.37
2019-02-18T11:49:36.743Z,29.83
2019-02-18T11:52:06.528Z,29.63
2019-02-18T11:54:36.337Z,29.30
2019-02-18T11:57:06.171Z,32.27
2019-02-18T11:59:36.013Z,27.63
2019-02-18T12:02:09.026Z,27.60
2019-02-18T12:04:39.201Z,30.87
2019-02-18T12:07:09.127Z,26.87
2019-02-18T12:09:38.924Z,24.47
2019-02-18T12:12:08.878Z,42.57
2019-02-18T12:14:38.855Z,21.70
2019-02-18T12:17:08.757Z,25.13
2019-02-18T12:19:39.887Z,33.47
2019-02-18T12:22:12.419Z,29.67
2019-02-18T12:24:42.147Z,34.13
2019-02-18T12:27:13.040Z,31.13
2019-02-18T12:29:42.953Z,31.07
2019-02-18T12:32:12.801Z,27.77
2019-02-18T12:34:42.634Z,23.17
2019-02-18T12:37:12.375Z,26.33
2019-02-18T12:39:44.620Z,22.00
2019-02-18T12:42:14.438Z,29.73
2019-02-18T12:44:44.157Z,21.53
2019-02-18T12:47:14.309Z,33.80
2019-02-18T12:49:44.307Z,27.20
2019-02-18T12:52:14.204Z,25.40
2019-02-18T12:54:44.657Z,41.73
2019-02-18T12:57:15.570Z,26.43
2019-02-18T12:59:48.044Z,29.40
2019-02-18T13:02:20.856Z,24.67
2019-02-18T13:04:52.202Z,25.10
2019-02-18T13:07:24.960Z,29.47
2019-02-18T13:09:57.847Z,27.47
2019-02-18T13:12:27.715Z,22.67
2019-02-18T13:14:59.828Z,34.20
2019-02-18T13:17:30.198Z,20.80
2019-02-18T13:20:00.063Z,19.60
2019-02-18T13:22:29.954Z,31.63
2019-02-18T13:24:59.821Z,25.87
2019-02-18T13:27:29.788Z,26.27
2019-02-18T13:29:59.605Z,21.70
2019-02-18T13:32:30.467Z,27.97
2019-02-18T13:35:00.455Z,21.57
2019-02-18T13:37:30.397Z,23.33
2019-02-18T13:40:00.534Z,32.10
2019-02-18T13:42:30.338Z,20.40
2019-02-18T13:45:00.470Z,25.60
2019-02-18T13:47:30.371Z,22.07
2019-02-18T13:50:00.217Z,23.30
2019-02-18T13:52:30.115Z,28.80
2019-02-18T13:55:01.678Z,20.97
2019-02-18T13:57:33.235Z,22.87
2019-02-18T14:00:03.573Z,22.57
2019-02-18T14:02:33.614Z,23.03
2019-02-18T14:05:03.653Z,20.43
2019-02-18T14:07:36.275Z,16.83
2019-02-18T14:10:06.411Z,20.63
2019-02-18T14:12:36.565Z,31.07
2019-02-18T14:15:12.642Z,25.30
2019-02-18T14:17:42.574Z,17.47
2019-02-18T14:20:14.160Z,20.67
2019-02-18T14:22:44.222Z,28.90
2019-02-18T14:25:14.691Z,24.40
2019-02-18T14:27:48.714Z,22.50
2019-02-18T14:30:21.778Z,20.77
2019-02-18T14:32:51.613Z,16.93
2019-02-18T14:35:23.816Z,14.73
2019-02-18T14:37:53.807Z,22.23
2019-02-18T14:40:27.542Z,27.87
2019-02-18T14:42:58.787Z,21.70
2019-02-18T14:45:28.598Z,28.60
2019-02-18T14:47:58.403Z,27.23
2019-02-18T14:50:30.467Z,27.90
2019-02-18T14:53:00.634Z,21.63
2019-02-18T14:55:31.662Z,22.63
2019-02-18T14:58:01.754Z,22.87
2019-02-18T15:00:31.574Z,22.93
2019-02-18T15:03:02.781Z,23.20
2019-02-18T15:05:33.181Z,19.97
2019-02-18T15:08:05.555Z,19.30
2019-02-18T15:10:35.666Z,32.83
2019-02-18T15:13:05.467Z,16.80
2019-02-18T15:15:38.262Z,18.17
2019-02-18T15:18:07.962Z,19.93
2019-02-18T15:20:43.024Z,21.33
2019-02-18T15:23:12.762Z,22.30
2019-02-18T15:25:44.659Z,33.57
2019-02-18T15:28:14.536Z,20.00
2019-02-18T15:30:44.725Z,25.47
2019-02-18T15:33:17.742Z,22.73
2019-02-18T15:35:47.695Z,22.93
2019-02-18T15:38:18.530Z,28.23
2019-02-18T15:40:51.384Z,16.80
2019-02-18T15:43:21.662Z,29.27
2019-02-18T15:45:51.616Z,20.83
2019-02-18T15:48:21.554Z,19.53
2019-02-18T15:50:51.479Z,21.70
2019-02-18T15:53:25.572Z,23.97
2019-02-18T15:55:56.933Z,25.07
2019-02-18T15:58:29.474Z,27.33
2019-02-18T16:00:59.374Z,23.53
2019-02-18T16:03:29.313Z,25.03
2019-02-18T16:06:01.898Z,17.50
2019-02-18T16:08:34.355Z,27.63
2019-02-18T16:11:04.197Z,17.27
2019-02-18T16:13:34.124Z,27.20
2019-02-18T16:16:04.172Z,19.20
2019-02-18T16:18:34.089Z,17.67
2019-02-18T16:21:04.009Z,16.20
2019-02-18T16:23:53.430Z,24.93
2019-02-18T16:26:23.370Z,26.60
2019-02-18T16:28:55.547Z,25.10
2019-02-18T16:31:30.592Z,25.60
2019-02-18T16:34:00.881Z,20.60
2019-02-18T16:36:32.022Z,22.13
2019-02-18T16:39:02.134Z,23.07
2019-02-18T16:41:36.281Z,21.70
2019-02-18T16:44:06.345Z,29.20
2019-02-18T16:46:36.283Z,31.10
2019-02-18T16:49:06.622Z,26.23
2019-02-18T16:51:36.413Z,31.10
2019-02-18T16:54:06.202Z,32.27
2019-02-18T16:56:36.168Z,39.33
2019-02-18T16:59:12.114Z,37.87
2019-02-18T17:01:44.605Z,45.43
2019-02-18T17:04:14.442Z,24.83
2019-02-18T17:06:45.367Z,30.73
2019-02-18T17:09:15.314Z,36.00
2019-02-18T17:11:45.667Z,42.60
2019-02-18T17:14:15.793Z,31.73
2019-02-18T17:16:50.113Z,35.73
2019-02-18T17:19:19.910Z,36.57
2019-02-18T17:21:49.724Z,34.40
2019-02-18T17:24:28.615Z,34.07
2019-02-18T17:26:59.467Z,35.13
2019-02-18T17:29:31.674Z,54.73
2019-02-18T17:32:01.426Z,39.87
2019-02-18T17:34:35.908Z,38.43
2019-02-18T17:37:05.676Z,42.77
2019-02-18T17:39:39.236Z,32.37
2019-02-18T17:42:10.365Z,38.73
2019-02-18T17:44:42.521Z,39.97
2019-02-18T17:47:15.102Z,40.67
2019-02-18T17:49:48.895Z,40.53
2019-02-18T17:52:20.410Z,35.77
2019-02-18T17:54:51.827Z,40.37
2019-02-18T17:57:21.597Z,31.40
2019-02-18T17:59:52.191Z,28.23
2019-02-18T18:02:22.032Z,35.60
2019-02-18T18:04:57.055Z,35.70
2019-02-18T18:07:29.932Z,35.93
2019-02-18T18:09:59.777Z,23.57
2019-02-18T18:12:30.895Z,30.13
2019-02-18T18:15:00.790Z,25.13
2019-02-18T18:17:30.765Z,29.43
2019-02-18T18:20:01.966Z,33.70
2019-02-18T18:22:31.834Z,34.73
2019-02-18T18:25:01.619Z,39.90
2019-02-18T18:27:34.306Z,29.43
2019-02-18T18:30:04.857Z,26.27
2019-02-18T18:32:37.621Z,29.40
2019-02-18T18:35:08.466Z,29.17
2019-02-18T18:37:38.483Z,26.67
2019-02-18T18:40:12.956Z,22.03
2019-02-18T18:42:42.840Z,22.23
2019-02-18T18:45:15.527Z,29.40
2019-02-18T18:47:45.151Z,21.93
2019-02-18T18:50:16.547Z,29.03
2019-02-18T18:52:47.150Z,27.30
2019-02-18T18:55:17.002Z,18.57
2019-02-18T18:57:46.831Z,23.73
2019-02-18T19:00:21.540Z,26.63
2019-02-18T19:02:51.429Z,34.50
2019-02-18T19:05:21.652Z,33.47
2019-02-18T19:07:51.909Z,29.83
2019-02-18T19:10:21.838Z,38.27
2019-02-18T19:12:51.630Z,27.63
2019-02-18T19:15:25.637Z,28.23
2019-02-18T19:17:56.786Z,32.07
2019-02-18T19:20:27.640Z,22.23
2019-02-18T19:22:57.469Z,29.43
2019-02-18T19:25:27.330Z,27.27
2019-02-18T19:27:57.039Z,25.80
2019-02-18T19:30:27.710Z,22.37
2019-02-18T19:32:57.678Z,26.63
2019-02-18T19:35:31.754Z,23.00
2019-02-18T19:38:01.558Z,28.93
2019-02-18T19:40:31.450Z,27.57
2019-02-18T19:43:02.145Z,28.40
2019-02-18T19:45:33.445Z,36.00
2019-02-18T19:48:03.299Z,24.53
2019-02-18T19:50:33.137Z,34.57
2019-02-18T19:53:03.098Z,23.60
2019-02-18T19:55:33.161Z,26.20
2019-02-18T19:58:03.365Z,26.73
2019-02-18T20:00:33.296Z,20.93
2019-02-18T20:03:03.160Z,23.00
2019-02-18T20:05:33.315Z,35.47
2019-02-18T20:08:09.533Z,27.13
2019-02-18T20:10:39.843Z,25.83
2019-02-18T20:13:09.787Z,24.03
2019-02-18T20:15:39.660Z,30.10
2019-02-18T20:18:09.558Z,39.33
2019-02-18T20:20:39.395Z,31.40
2019-02-18T20:23:14.329Z,32.53
2019-02-18T20:25:46.948Z,35.97
2019-02-18T20:28:16.659Z,28.37
2019-02-18T20:30:46.579Z,36.47
2019-02-18T20:33:16.504Z,28.03
2019-02-18T20:35:47.785Z,32.53
2019-02-18T20:38:17.706Z,25.77
2019-02-18T20:40:47.658Z,40.97
2019-02-18T20:43:18.029Z,33.97
2019-02-18T20:45:47.785Z,36.90
2019-02-18T20:48:17.694Z,35.83
2019-02-18T20:50:47.513Z,42.17
2019-02-18T20:53:17.427Z,29.37
2019-02-18T20:55:47.366Z,39.27
2019-02-18T20:58:18.769Z,34.90
2019-02-18T21:00:48.995Z,43.10
2019-02-18T21:03:19.095Z,34.40
2019-02-18T21:05:48.828Z,34.07
2019-02-18T21:08:19.756Z,27.60
2019-02-18T21:10:49.513Z,33.93
2019-02-18T21:13:19.315Z,33.17
2019-02-18T21:15:52.251Z,28.93
2019-02-18T21:18:24.670Z,30.10
2019-02-18T21:20:55.427Z,38.87
2019-02-18T21:23:25.229Z,26.90
2019-02-18T21:25:55.150Z,41.70
2019-02-18T21:28:24.948Z,39.63
2019-02-18T21:30:54.852Z,39.07
2019-02-18T21:33:24.852Z,39.87
2019-02-18T21:35:54.770Z,41.57
2019-02-18T21:38:26.710Z,35.57
2019-02-18T21:40:56.841Z,42.90
2019-02-18T21:43:27.068Z,38.23
2019-02-18T21:45:57.006Z,47.57
2019-02-18T21:48:29.181Z,41.23
2019-02-18T21:50:58.944Z,36.77
2019-02-18T21:53:28.760Z,39.50
2019-02-18T21:55:58.479Z,33.50
2019-02-18T21:58:28.559Z,29.30
2019-02-18T22:00:58.427Z,30.60
2019-02-18T22:03:28.369Z,30.60
2019-02-18T22:05:58.402Z,22.00
2019-02-18T22:08:28.165Z,21.90
2019-02-18T22:11:03.603Z,18.13
2019-02-18T22:13:33.642Z,19.83
2019-02-18T22:16:03.548Z,18.97
2019-02-18T22:18:33.470Z,17.20
2019-02-18T22:21:08.224Z,20.43
2019-02-18T22:23:39.558Z,22.10
2019-02-18T22:26:10.752Z,22.27
2019-02-18T22:28:40.566Z,17.90
2019-02-18T22:31:10.631Z,23.03
2019-02-18T22:33:40.690Z,16.60
2019-02-18T22:36:10.414Z,11.50
2019-02-18T22:38:43.078Z,14.77
2019-02-18T22:41:12.839Z,11.83
2019-02-18T22:43:42.672Z,16.20
2019-02-18T22:46:12.442Z,11.53
2019-02-18T22:48:45.787Z,11.67
2019-02-18T22:51:15.542Z,14.00
2019-02-18T22:53:45.638Z,4.57
2019-02-18T22:56:15.346Z,9.00
2019-02-18T22:58:52.903Z,14.07
2019-02-18T23:01:23.654Z,19.87
2019-02-18T23:03:53.433Z,9.30
2019-02-18T23:06:23.838Z,14.63
2019-02-18T23:08:56.119Z,6.73
2019-02-18T23:11:25.986Z,16.60
2019-02-18T23:13:55.770Z,11.67
2019-02-18T23:16:25.625Z,16.17
2019-02-18T23:18:55.327Z,16.27
2019-02-18T23:21:25.389Z,12.40
2019-02-18T23:23:59.931Z,19.13
2019-02-18T23:26:29.698Z,17.13
2019-02-18T23:28:59.461Z,23.63
2019-02-18T23:31:29.461Z,19.93
2019-02-18T23:34:02.977Z,19.23
2019-02-18T23:36:32.873Z,18.90
2019-02-18T23:39:03.153Z,25.63
2019-02-18T23:41:34.796Z,16.93
2019-02-18T23:44:04.645Z,12.13
2019-02-18T23:46:34.375Z,15.17
2019-02-18T23:49:04.187Z,15.80
2019-02-18T23:51:34.060Z,22.73
2019-02-18T23:54:05.661Z,15.43
2019-02-18T23:56:35.619Z,10.60
2019-02-18T23:59:05.519Z,22.37
